createdAt,value
2023-05-14T00:00:21.917Z,15.42
2023-05-14T00:02:48.548Z,15.45
2023-05-14T00:05:15.421Z,15.35
2023-05-14T00:07:41.769Z,15.33
2023-05-14T00:10:08.437Z,15.32
2023-05-14T00:12:34.827Z,15.30
2023-05-14T00:15:01.201Z,15.32
2023-05-14T00:17:27.700Z,15.33
2023-05-14T00:19:54.101Z,15.31
2023-05-14T00:22:20.520Z,15.24
2023-05-14T00:24:46.916Z,15.21
2023-05-14T00:27:13.378Z,15.19
2023-05-14T00:29:39.992Z,15.16
2023-05-14T00:32:06.788Z,15.23
2023-05-14T00:34:33.237Z,15.19
2023-05-14T00:36:59.623Z,15.13
2023-05-14T00:39:26.005Z,15.04
2023-05-14T00:41:52.385Z,15.06
2023-05-14T00:44:18.729Z,15.03
2023-05-14T00:46:45.529Z,14.96
2023-05-14T00:49:12.077Z,14.97
2023-05-14T00:51:39.679Z,15.04
2023-05-14T00:54:06.427Z,15.06
2023-05-14T00:56:34.108Z,14.96
2023-05-14T00:59:00.602Z,14.93
2023-05-14T01:01:28.541Z,14.96
2023-05-14T01:03:57.782Z,14.92
2023-05-14T01:06:58.539Z,14.89
2023-05-14T01:09:59.698Z,14.79
2023-05-14T01:12:54.698Z,14.84
2023-05-14T01:15:25.718Z,14.80
2023-05-14T01:17:59.063Z,14.85
2023-05-14T01:20:26.712Z,14.80
2023-05-14T01:22:53.079Z,14.84
2023-05-14T01:25:19.531Z,14.77
2023-05-14T01:28:03.835Z,14.80
2023-05-14T01:30:48.962Z,14.76
2023-05-14T01:33:18.300Z,14.74
2023-05-14T01:35:45.440Z,14.70
2023-05-14T01:38:14.884Z,14.68
2023-05-14T01:40:41.802Z,14.63
2023-05-14T01:43:08.719Z,14.67
2023-05-14T01:45:36.606Z,14.71
2023-05-14T01:48:04.427Z,14.74
2023-05-14T01:50:30.813Z,14.66
2023-05-14T01:52:57.257Z,14.59
2023-05-14T01:55:24.646Z,14.39
2023-05-14T01:57:51.690Z,14.32
2023-05-14T02:00:19.087Z,14.38
2023-05-14T02:02:45.466Z,14.41
2023-05-14T02:05:12.779Z,14.35
2023-05-14T02:07:39.409Z,14.40
2023-05-14T02:10:06.581Z,14.44
2023-05-14T02:12:33.148Z,14.45
2023-05-14T02:14:59.561Z,14.49
2023-05-14T02:17:26.605Z,14.41
2023-05-14T02:19:52.989Z,14.37
2023-05-14T02:22:19.368Z,14.36
2023-05-14T02:24:45.686Z,14.44
2023-05-14T02:27:13.165Z,14.39
2023-05-14T02:29:39.506Z,14.42
2023-05-14T02:32:06.240Z,14.43
2023-05-14T02:34:34.340Z,14.41
2023-05-14T02:37:01.013Z,14.39
2023-05-14T02:39:27.392Z,14.38
2023-05-14T02:41:53.708Z,14.28
2023-05-14T02:44:20.089Z,14.18
2023-05-14T02:46:48.219Z,14.21
2023-05-14T02:49:14.697Z,14.22
2023-05-14T02:51:41.129Z,14.21
2023-05-14T02:54:07.638Z,14.24
2023-05-14T02:56:34.020Z,14.20
2023-05-14T02:59:00.613Z,14.24
2023-05-14T03:01:27.538Z,14.21
2023-05-14T03:03:54.323Z,14.11
2023-05-14T03:06:20.713Z,14.13
2023-05-14T03:08:47.095Z,13.98
2023-05-14T03:11:13.489Z,14.00
2023-05-14T03:13:39.898Z,13.99
2023-05-14T03:16:06.521Z,13.92
2023-05-14T03:18:34.731Z,13.87
2023-05-14T03:21:01.192Z,13.90
2023-05-14T03:23:27.873Z,13.85
2023-05-14T03:25:54.231Z,13.94
2023-05-14T03:28:20.569Z,13.85
2023-05-14T03:30:47.044Z,13.85
2023-05-14T03:33:13.406Z,13.82
2023-05-14T03:35:39.774Z,13.75
2023-05-14T03:38:06.323Z,13.69
2023-05-14T03:40:32.689Z,13.72
2023-05-14T03:42:59.104Z,13.68
2023-05-14T03:45:26.826Z,13.62
2023-05-14T03:47:53.378Z,13.64
2023-05-14T03:50:19.848Z,13.63
2023-05-14T03:52:46.230Z,13.50
2023-05-14T03:55:12.666Z,13.43
2023-05-14T03:57:39.074Z,13.49
2023-05-14T04:00:06.324Z,13.56
2023-05-14T04:02:32.891Z,13.52
2023-05-14T04:04:59.354Z,13.50
2023-05-14T04:07:25.741Z,13.47
2023-05-14T04:09:52.144Z,13.45
2023-05-14T04:12:18.590Z,13.48
2023-05-14T04:14:45.016Z,13.48
2023-05-14T04:17:11.317Z,13.48
2023-05-14T04:19:37.976Z,13.49
2023-05-14T04:22:04.843Z,13.54
2023-05-14T04:24:31.256Z,13.53
2023-05-14T04:26:57.629Z,13.38
2023-05-14T04:29:24.014Z,13.37
2023-05-14T04:31:50.583Z,13.42
2023-05-14T04:34:17.064Z,13.41
2023-05-14T04:36:43.459Z,13.41
2023-05-14T04:39:09.912Z,13.38
2023-05-14T04:41:36.732Z,13.34
2023-05-14T04:44:03.586Z,13.30
2023-05-14T04:46:30.359Z,13.26
2023-05-14T04:48:56.881Z,13.24
2023-05-14T04:51:23.784Z,13.25
2023-05-14T04:53:50.231Z,13.26
2023-05-14T04:56:16.571Z,13.22
2023-05-14T04:58:42.948Z,13.22
2023-05-14T05:01:10.029Z,13.20
2023-05-14T05:03:36.460Z,13.18
2023-05-14T05:06:02.864Z,13.16
2023-05-14T05:08:29.263Z,13.10
2023-05-14T05:10:55.652Z,13.18
2023-05-14T05:13:21.988Z,13.26
2023-05-14T05:15:48.543Z,13.19
2023-05-14T05:18:14.948Z,13.23
2023-05-14T05:20:41.385Z,13.23
2023-05-14T05:23:07.756Z,13.25
2023-05-14T05:25:34.104Z,13.26
2023-05-14T05:28:00.696Z,13.27
2023-05-14T05:30:27.124Z,13.29
2023-05-14T05:32:53.580Z,13.26
2023-05-14T05:35:20.136Z,13.30
2023-05-14T05:37:46.575Z,13.23
2023-05-14T05:40:14.370Z,13.21
2023-05-14T05:42:41.349Z,13.17
2023-05-14T05:45:08.436Z,13.22
2023-05-14T05:47:34.882Z,13.26
2023-05-14T05:50:01.286Z,13.29
2023-05-14T05:52:27.641Z,13.26
2023-05-14T05:54:54.541Z,13.34
2023-05-14T05:57:25.666Z,13.38
2023-05-14T05:59:53.082Z,13.32
2023-05-14T06:02:20.313Z,13.33
2023-05-14T06:04:46.834Z,13.39
2023-05-14T06:07:13.217Z,13.40
2023-05-14T06:09:39.616Z,13.41
2023-05-14T06:12:06.390Z,13.42
2023-05-14T06:14:32.785Z,13.47
2023-05-14T06:16:59.170Z,13.45
2023-05-14T06:19:25.553Z,13.42
2023-05-14T06:21:51.950Z,13.50
2023-05-14T06:24:19.932Z,13.61
2023-05-14T06:26:46.318Z,13.66
2023-05-14T06:29:12.649Z,13.62
2023-05-14T06:31:39.081Z,13.63
2023-05-14T06:34:05.542Z,13.58
2023-05-14T06:36:32.004Z,13.66
2023-05-14T06:38:58.444Z,13.66
2023-05-14T06:41:24.840Z,13.76
2023-05-14T06:43:51.229Z,13.86
2023-05-14T06:46:17.616Z,13.86
2023-05-14T06:48:44.051Z,13.86
2023-05-14T06:51:11.055Z,13.91
2023-05-14T06:53:37.442Z,13.95
2023-05-14T06:56:03.943Z,13.97
2023-05-14T06:58:30.348Z,13.98
2023-05-14T07:00:56.784Z,14.01
2023-05-14T07:03:23.092Z,13.98
2023-05-14T07:05:49.720Z,14.06
2023-05-14T07:08:16.077Z,14.16
2023-05-14T07:10:42.454Z,14.23
2023-05-14T07:13:08.787Z,14.19
2023-05-14T07:15:35.098Z,14.17
2023-05-14T07:18:01.507Z,14.18
2023-05-14T07:20:28.087Z,14.17
2023-05-14T07:22:54.616Z,14.17
2023-05-14T07:25:21.012Z,14.23
2023-05-14T07:27:47.490Z,14.31
2023-05-14T07:30:14.002Z,14.39
2023-05-14T07:32:40.764Z,14.45
2023-05-14T07:35:07.924Z,14.48
2023-05-14T07:37:34.518Z,14.54
2023-05-14T07:40:00.928Z,14.55
2023-05-14T07:42:35.968Z,14.62
2023-05-14T07:45:04.209Z,14.66
2023-05-14T07:47:30.810Z,14.71
2023-05-14T07:49:57.826Z,14.72
2023-05-14T07:52:24.894Z,14.74
2023-05-14T07:54:52.089Z,14.82
2023-05-14T07:57:19.493Z,14.89
2023-05-14T07:59:46.435Z,14.93
2023-05-14T08:02:12.965Z,14.97
2023-05-14T08:04:39.884Z,15.01
2023-05-14T08:07:08.512Z,15.08
2023-05-14T08:09:34.967Z,15.08
2023-05-14T08:12:01.420Z,15.13
2023-05-14T08:14:28.611Z,15.16
2023-05-14T08:16:55.092Z,15.19
2023-05-14T08:19:22.986Z,15.21
2023-05-14T08:21:49.423Z,15.16
2023-05-14T08:24:15.859Z,15.20
2023-05-14T08:26:42.314Z,15.27
2023-05-14T08:29:10.647Z,15.32
2023-05-14T08:31:37.579Z,15.43
2023-05-14T08:34:03.923Z,15.46
2023-05-14T08:36:30.285Z,15.54
2023-05-14T08:38:56.688Z,15.57
2023-05-14T08:41:23.453Z,15.63
2023-05-14T08:44:12.484Z,15.63
2023-05-14T08:46:39.712Z,15.67
2023-05-14T08:49:25.097Z,15.73
2023-05-14T08:51:51.793Z,15.80
2023-05-14T08:54:18.390Z,15.80
2023-05-14T08:56:49.892Z,15.89
2023-05-14T08:59:17.670Z,15.95
2023-05-14T09:01:47.902Z,15.88
2023-05-14T09:04:22.008Z,15.98
2023-05-14T09:06:56.193Z,16.07
2023-05-14T09:09:23.189Z,16.11
2023-05-14T09:11:53.858Z,16.17
2023-05-14T09:14:20.869Z,16.17
2023-05-14T09:16:49.582Z,16.10
2023-05-14T09:19:18.973Z,16.16
2023-05-14T09:21:46.871Z,16.19
2023-05-14T09:24:24.005Z,16.25
2023-05-14T09:26:52.598Z,16.28
2023-05-14T09:29:19.274Z,16.24
2023-05-14T09:31:45.978Z,16.28
2023-05-14T09:34:23.983Z,16.33
2023-05-14T09:36:50.459Z,16.39
2023-05-14T09:39:17.626Z,16.40
2023-05-14T09:41:43.944Z,16.43
2023-05-14T09:44:10.856Z,16.54
2023-05-14T09:46:37.217Z,16.58
2023-05-14T09:49:03.598Z,16.62
2023-05-14T09:51:34.424Z,16.69
2023-05-14T09:54:01.246Z,16.70
2023-05-14T09:56:27.597Z,16.76
2023-05-14T09:58:55.008Z,16.75
2023-05-14T10:01:22.684Z,16.81
2023-05-14T10:03:49.785Z,16.82
2023-05-14T10:06:17.797Z,16.87
2023-05-14T10:08:45.585Z,16.96
2023-05-14T10:11:15.513Z,16.97
2023-05-14T10:13:53.132Z,16.96
2023-05-14T10:16:24.127Z,16.95
2023-05-14T10:18:56.423Z,17.15
2023-05-14T10:21:24.295Z,17.22
2023-05-14T10:23:51.397Z,17.24
2023-05-14T10:26:18.204Z,17.31
2023-05-14T10:28:45.355Z,17.36
2023-05-14T10:31:12.797Z,17.50
2023-05-14T10:33:50.652Z,17.63
2023-05-14T10:36:20.725Z,17.66
2023-05-14T10:38:47.341Z,17.53
2023-05-14T10:41:17.610Z,17.58
2023-05-14T10:43:44.430Z,17.75
2023-05-14T10:46:13.127Z,17.80
2023-05-14T10:48:42.836Z,17.82
2023-05-14T10:51:10.872Z,17.84
2023-05-14T10:53:39.716Z,17.87
2023-05-14T10:56:15.350Z,17.91
2023-05-14T10:58:43.836Z,18.07
2023-05-14T11:01:12.512Z,18.06
2023-05-14T11:03:46.724Z,18.07
2023-05-14T11:06:14.934Z,18.21
2023-05-14T11:08:41.665Z,18.28
2023-05-14T11:11:09.216Z,18.27
2023-05-14T11:13:35.878Z,18.20
2023-05-14T11:16:12.027Z,18.27
2023-05-14T11:18:48.031Z,18.45
2023-05-14T11:21:14.445Z,18.41
2023-05-14T11:23:40.820Z,18.57
2023-05-14T11:26:07.322Z,18.59
2023-05-14T11:28:34.341Z,18.57
2023-05-14T11:31:01.120Z,18.48
2023-05-14T11:33:27.905Z,18.51
2023-05-14T11:35:54.371Z,18.56
2023-05-14T11:38:21.356Z,18.51
2023-05-14T11:40:58.709Z,18.62
2023-05-14T11:43:28.401Z,18.66
2023-05-14T11:45:55.511Z,18.64
2023-05-14T11:48:22.936Z,18.61
2023-05-14T11:50:53.234Z,18.63
2023-05-14T11:53:30.298Z,18.57
2023-05-14T11:55:59.571Z,18.56
2023-05-14T11:58:26.401Z,18.60
2023-05-14T12:00:55.285Z,18.71
2023-05-14T12:03:25.990Z,18.82
2023-05-14T12:05:59.713Z,18.83
2023-05-14T12:08:30.610Z,19.00
2023-05-14T12:10:59.219Z,18.93
2023-05-14T12:13:30.494Z,19.07
2023-05-14T12:15:59.273Z,19.15
2023-05-14T12:18:27.790Z,19.24
2023-05-14T12:20:54.312Z,19.33
2023-05-14T12:23:28.630Z,19.26
2023-05-14T12:25:55.228Z,19.21
2023-05-14T12:28:23.246Z,19.25
2023-05-14T12:30:56.481Z,19.28
2023-05-14T12:33:23.805Z,19.30
2023-05-14T12:35:50.268Z,19.23
2023-05-14T12:38:16.626Z,19.40
2023-05-14T12:40:43.001Z,19.43
2023-05-14T12:43:09.359Z,19.42
2023-05-14T12:45:35.741Z,19.39
2023-05-14T12:48:02.114Z,19.39
2023-05-14T12:50:29.192Z,19.48
2023-05-14T12:52:55.789Z,19.47
2023-05-14T12:55:22.147Z,19.61
2023-05-14T12:57:48.559Z,19.75
2023-05-14T13:00:15.462Z,19.74
2023-05-14T13:02:42.975Z,19.75
2023-05-14T13:05:10.580Z,19.70
2023-05-14T13:07:37.268Z,19.74
2023-05-14T13:10:05.857Z,19.63
2023-05-14T13:12:32.517Z,19.62
2023-05-14T13:14:58.978Z,19.62
2023-05-14T13:17:26.601Z,19.71
2023-05-14T13:19:53.047Z,19.66
2023-05-14T13:22:19.428Z,19.56
2023-05-14T13:24:46.361Z,19.58
2023-05-14T13:27:12.795Z,19.64
2023-05-14T13:29:39.273Z,19.67
2023-05-14T13:32:06.057Z,19.65
2023-05-14T13:34:32.393Z,19.62
2023-05-14T13:36:58.818Z,19.64
2023-05-14T13:39:27.055Z,19.70
2023-05-14T13:41:57.096Z,19.68
2023-05-14T13:44:23.899Z,19.65
2023-05-14T13:46:50.590Z,19.63
2023-05-14T13:49:17.298Z,19.63
2023-05-14T13:51:44.065Z,19.67
2023-05-14T13:54:10.506Z,19.73
2023-05-14T13:56:36.842Z,19.73
2023-05-14T13:59:03.532Z,19.65
2023-05-14T14:01:32.783Z,19.66
2023-05-14T14:03:59.281Z,19.66
2023-05-14T14:06:27.248Z,19.68
2023-05-14T14:08:53.905Z,19.67
2023-05-14T14:11:20.637Z,19.70
2023-05-14T14:13:46.974Z,19.71
2023-05-14T14:16:13.478Z,19.70
2023-05-14T14:18:39.922Z,19.72
2023-05-14T14:21:06.460Z,19.73
2023-05-14T14:23:32.805Z,19.68
2023-05-14T14:25:59.266Z,19.64
2023-05-14T14:28:25.717Z,19.60
2023-05-14T14:30:52.213Z,19.55
2023-05-14T14:33:18.601Z,19.58
2023-05-14T14:35:44.998Z,19.65
2023-05-14T14:38:11.379Z,19.67
2023-05-14T14:40:37.768Z,19.58
2023-05-14T14:43:04.100Z,19.60
2023-05-14T14:45:30.836Z,19.67
2023-05-14T14:48:25.236Z,19.60
2023-05-14T14:50:52.057Z,19.59
2023-05-14T14:53:19.634Z,19.63
2023-05-14T14:55:46.149Z,19.66
2023-05-14T14:58:12.725Z,19.64
2023-05-14T15:00:40.178Z,19.56
2023-05-14T15:03:09.775Z,19.52
2023-05-14T15:05:36.243Z,19.56
2023-05-14T15:08:02.663Z,19.47
2023-05-14T15:10:29.552Z,19.50
2023-05-14T15:12:59.821Z,19.54
2023-05-14T15:15:26.664Z,19.57
2023-05-14T15:17:53.239Z,19.55
2023-05-14T15:20:19.714Z,19.58
2023-05-14T15:22:46.099Z,19.56
2023-05-14T15:25:12.420Z,19.56
2023-05-14T15:27:38.820Z,19.58
2023-05-14T15:30:06.313Z,19.55
2023-05-14T15:32:33.731Z,19.50
2023-05-14T15:35:01.052Z,19.50
2023-05-14T15:37:27.505Z,19.50
2023-05-14T15:39:54.044Z,19.50
2023-05-14T15:42:20.956Z,19.49
2023-05-14T15:44:47.336Z,19.49
2023-05-14T15:47:13.782Z,19.49
2023-05-14T15:49:40.144Z,19.46
2023-05-14T15:52:06.755Z,19.37
2023-05-14T15:54:33.134Z,19.38
2023-05-14T15:56:59.478Z,19.37
2023-05-14T15:59:25.834Z,19.31
2023-05-14T16:01:52.324Z,19.30
2023-05-14T16:04:18.700Z,19.33
2023-05-14T16:06:45.218Z,19.37
2023-05-14T16:09:11.636Z,19.39
2023-05-14T16:11:38.077Z,19.37
2023-05-14T16:14:04.526Z,19.36
2023-05-14T16:16:31.046Z,19.38
2023-05-14T16:18:57.546Z,19.37
2023-05-14T16:21:23.909Z,19.29
2023-05-14T16:23:50.270Z,19.24
2023-05-14T16:26:16.679Z,19.26
2023-05-14T16:28:43.096Z,19.26
2023-05-14T16:31:09.523Z,19.23
2023-05-14T16:33:35.921Z,19.20
2023-05-14T16:36:02.406Z,19.13
2023-05-14T16:38:28.793Z,19.02
2023-05-14T16:40:55.283Z,19.00
2023-05-14T16:43:21.605Z,19.01
2023-05-14T16:45:48.139Z,19.01
2023-05-14T16:48:14.636Z,19.02
2023-05-14T16:50:41.073Z,18.98
2023-05-14T16:53:07.462Z,18.93
2023-05-14T16:55:34.173Z,18.94
2023-05-14T16:58:00.511Z,18.86
2023-05-14T17:00:26.887Z,18.87
2023-05-14T17:02:54.177Z,18.91
2023-05-14T17:05:21.115Z,18.91
2023-05-14T17:07:47.846Z,18.95
2023-05-14T17:10:14.314Z,18.86
2023-05-14T17:12:40.742Z,18.85
2023-05-14T17:15:07.838Z,18.83
2023-05-14T17:17:34.507Z,18.73
2023-05-14T17:20:01.050Z,18.72
2023-05-14T17:22:27.585Z,18.72
2023-05-14T17:24:54.235Z,18.60
2023-05-14T17:27:20.679Z,18.49
2023-05-14T17:29:47.082Z,18.42
2023-05-14T17:32:13.518Z,18.35
2023-05-14T17:34:39.888Z,18.24
2023-05-14T17:37:06.712Z,18.23
2023-05-14T17:39:33.073Z,18.15
2023-05-14T17:41:59.448Z,18.06
2023-05-14T17:44:25.804Z,18.03
2023-05-14T17:46:52.282Z,17.93
2023-05-14T17:49:18.624Z,17.85
2023-05-14T17:51:44.980Z,17.89
2023-05-14T17:54:11.303Z,17.89
2023-05-14T17:56:37.712Z,17.84
2023-05-14T17:59:04.045Z,17.82
2023-05-14T18:01:30.756Z,17.77
2023-05-14T18:03:57.270Z,17.82
2023-05-14T18:06:23.900Z,17.66
2023-05-14T18:08:50.369Z,17.73
2023-05-14T18:11:16.846Z,17.70
2023-05-14T18:13:43.264Z,17.49
2023-05-14T18:16:09.668Z,17.44
2023-05-14T18:18:36.056Z,17.46
2023-05-14T18:21:02.752Z,17.50
2023-05-14T18:23:29.092Z,17.52
2023-05-14T18:25:55.535Z,17.49
2023-05-14T18:28:21.919Z,17.42
2023-05-14T18:30:49.240Z,17.39
2023-05-14T18:33:15.672Z,17.42
2023-05-14T18:35:43.502Z,17.29
2023-05-14T18:38:11.728Z,17.17
2023-05-14T18:40:38.189Z,17.11
2023-05-14T18:43:04.623Z,17.07
2023-05-14T18:45:31.064Z,17.05
2023-05-14T18:47:57.611Z,16.98
2023-05-14T18:50:24.043Z,16.94
2023-05-14T18:52:50.460Z,16.86
2023-05-14T18:55:17.020Z,16.85
2023-05-14T18:57:43.528Z,16.81
2023-05-14T19:00:10.651Z,16.76
2023-05-14T19:02:37.102Z,16.68
2023-05-14T19:05:03.727Z,16.58
2023-05-14T19:07:30.880Z,16.58
2023-05-14T19:09:57.270Z,16.56
2023-05-14T19:12:23.664Z,16.56
2023-05-14T19:14:49.994Z,16.54
2023-05-14T19:17:18.372Z,16.56
2023-05-14T19:19:45.510Z,16.55
2023-05-14T19:22:11.853Z,16.47
2023-05-14T19:24:38.237Z,16.38
2023-05-14T19:27:04.819Z,16.39
2023-05-14T19:29:32.376Z,16.40
2023-05-14T19:31:58.856Z,16.35
2023-05-14T19:34:26.996Z,16.31
2023-05-14T19:36:53.358Z,16.28
2023-05-14T19:39:19.665Z,16.23
2023-05-14T19:41:46.090Z,16.14
2023-05-14T19:44:12.426Z,16.06
2023-05-14T19:46:38.885Z,15.82
2023-05-14T19:49:05.458Z,15.79
2023-05-14T19:51:31.860Z,15.80
2023-05-14T19:53:58.176Z,15.82
2023-05-14T19:56:26.450Z,15.81
2023-05-14T19:58:53.958Z,15.72
2023-05-14T20:01:20.913Z,15.81
2023-05-14T20:03:47.462Z,15.83
2023-05-14T20:06:13.905Z,15.66
2023-05-14T20:08:40.343Z,15.68
2023-05-14T20:11:07.085Z,15.66
2023-05-14T20:13:35.441Z,15.72
2023-05-14T20:16:01.874Z,15.71
2023-05-14T20:18:28.259Z,15.77
2023-05-14T20:20:54.765Z,15.74
2023-05-14T20:23:21.238Z,15.63
2023-05-14T20:25:47.807Z,15.58
2023-05-14T20:28:14.192Z,15.61
2023-05-14T20:30:40.685Z,15.64
2023-05-14T20:33:07.284Z,15.53
2023-05-14T20:35:33.927Z,15.66
2023-05-14T20:38:00.348Z,15.66
2023-05-14T20:40:26.856Z,15.64
2023-05-14T20:42:53.374Z,15.69
2023-05-14T20:45:19.733Z,15.69
2023-05-14T20:47:46.157Z,15.57
2023-05-14T20:50:13.587Z,15.64
2023-05-14T20:52:40.062Z,15.64
2023-05-14T20:55:07.665Z,15.53
2023-05-14T20:57:34.058Z,15.52
2023-05-14T21:00:00.374Z,15.51
2023-05-14T21:02:26.875Z,15.47
2023-05-14T21:04:53.402Z,15.50
2023-05-14T21:07:19.803Z,15.49
2023-05-14T21:09:50.797Z,15.56
2023-05-14T21:12:17.178Z,15.61
2023-05-14T21:14:43.575Z,15.66
2023-05-14T21:17:10.433Z,15.61
2023-05-14T21:19:36.785Z,15.56
2023-05-14T21:22:03.189Z,15.61
2023-05-14T21:24:29.602Z,15.69
2023-05-14T21:26:56.044Z,15.74
2023-05-14T21:29:22.430Z,15.67
2023-05-14T21:31:48.924Z,15.59
2023-05-14T21:34:15.437Z,15.53
2023-05-14T21:36:41.832Z,15.53
2023-05-14T21:39:08.236Z,15.46
2023-05-14T21:41:34.666Z,15.46
2023-05-14T21:44:01.044Z,15.49
2023-05-14T21:46:28.875Z,15.43
2023-05-14T21:48:56.352Z,15.42
2023-05-14T21:51:22.873Z,15.47
2023-05-14T21:53:49.291Z,15.51
2023-05-14T21:56:15.795Z,15.40
2023-05-14T21:58:42.261Z,15.29
2023-05-14T22:01:09.059Z,15.34
2023-05-14T22:03:35.936Z,15.29
2023-05-14T22:06:02.338Z,15.33
2023-05-14T22:08:29.838Z,15.33
2023-05-14T22:10:56.357Z,15.37
2023-05-14T22:13:22.771Z,15.29
2023-05-14T22:15:51.410Z,15.36
2023-05-14T22:18:22.160Z,15.28
2023-05-14T22:20:48.541Z,15.25
2023-05-14T22:23:14.874Z,15.28
2023-05-14T22:25:41.298Z,15.23
2023-05-14T22:28:07.651Z,15.22
2023-05-14T22:30:34.093Z,15.22
2023-05-14T22:33:00.485Z,15.24
2023-05-14T22:35:27.052Z,15.24
2023-05-14T22:37:53.597Z,15.25
2023-05-14T22:40:20.174Z,15.26
2023-05-14T22:42:46.605Z,15.28
2023-05-14T22:45:12.986Z,15.28
2023-05-14T22:47:39.384Z,15.28
2023-05-14T22:50:11.302Z,15.19
2023-05-14T22:52:40.945Z,15.09
2023-05-14T22:55:08.270Z,15.12
2023-05-14T22:57:35.010Z,15.04
2023-05-14T23:00:01.558Z,14.95
2023-05-14T23:02:28.011Z,14.92
2023-05-14T23:04:54.510Z,14.94
2023-05-14T23:07:21.941Z,14.97
2023-05-14T23:09:48.285Z,14.96
2023-05-14T23:12:14.782Z,15.01
2023-05-14T23:14:41.232Z,15.02
2023-05-14T23:17:07.663Z,14.98
2023-05-14T23:19:34.132Z,15.00
2023-05-14T23:22:00.739Z,14.86
2023-05-14T23:24:27.188Z,14.92
2023-05-14T23:26:53.605Z,14.90
2023-05-14T23:29:19.960Z,14.88
2023-05-14T23:31:46.402Z,14.81
2023-05-14T23:34:12.826Z,14.87
2023-05-14T23:36:40.361Z,14.85
2023-05-14T23:39:06.945Z,14.80
2023-05-14T23:41:33.604Z,14.82
2023-05-14T23:44:00.034Z,14.91
2023-05-14T23:46:26.791Z,14.98
2023-05-14T23:48:56.850Z,14.98
2023-05-14T23:51:24.342Z,14.99
2023-05-14T23:53:53.094Z,14.99
2023-05-14T23:56:19.486Z,14.98
2023-05-14T23:58:45.907Z,14.95
